Lancaster Airport
KLNS : now visible

Airfield :











YOU CAN JOIN US ON...

 
LOGIN :

Register | Disclaimer

   EN    FR    IT 

 









Legend :    VFR   Marginal VFR   IFR   Intensive IFR   Very Intensive IFR
Visi :
Ceiling :
>= 8 km
>= 3000ft
5 to 8 km
1000 to 3000 ft
1500m to 5 km
500 to 1000 ft
800 to 1500m
200 to 500 ft
< 800m
< 200 ft
Symbols :   Thunderstorms  Fog  Heavy snow  Heavy precipitations  Wind > 20 kt






- Airport Elevation : 403 ft
- IATA code : LNS


KLNS - Lancaster

CURRENT METAR :
  • 082353Z 08004KT 10SM CLR 25/22 A2996 RMK AO2 SLP141 60112 T02500217 10322 20222 55003

EXPIRED METARs :
  • 082253Z 33005KT 10SM CLR 25/21 A2994 RMK AO2 LTG DSNT W RAE01 TSE2156 SLP136 P0000 T02500211
  • 082202Z 12005KT 10SM BKN100 BKN120 23/20 A2996 RMK AO2 LTG DSNT E AND SW AND W RAE01 TSE2156 P0000 T02280200
  • 082153Z COR 10008KT 10SM -RA FEW033 SCT095 BKN110 23/20 A2996 RMK AO2 LTG DSNT ALQDS TSE51 SLP142 P0087 T02280200
  • 082137Z 12012KT 5SM TSRA SCT023 BKN100 BKN120 23/19 A2996 RMK AO2 LTG DSNT ALQDS OHD TS OHD MOV SE P0087 T02280189

TAF KLNS
Valid from the 09 at 00:00 until the 10 at 00:00 UTC


082323Z 0900/0924 12005KT P6SM VCTS SCT040CB BKN100
FM090500 00000KT 5SM BR SCT025
FM090900 00000KT 1/2SM FG SCT025
FM091230 00000KT 3SM BR SCT025
FM091400 12004KT P6SM SCT250
KZNY FIR / North America



MET'MAP, your aeronautical weather chart ! - Copyright ORBIFLY December 2007 - Disclaimer

ORBIFLY MET'MAP TEAM :

Programming & Development : Alexandra Zaïnal
Concept & original design : Baudouin d'Aumeries
Assistance for programming : Marc-Olivier Méhu
Technical & hardware support : Manuel Goepfert

Contact : metmap@orbifly.com




SOURCES & CREDITS :

   NOAA       Earth
Advisory